Time;durP1;ratioP1;P1;durP2;ratioP2;P2;SDS_P1;SDS_P2;PMS_P1;PMS_P2;Temp;Humidity;BMP_temperature;BMP_pressure;BME280_temperature;BME280_humidity;BME280_pressure;Samples;Min_cycle;Max_cycle;Signal;HPM_P1;HPM_P2
2020/12/27 00:00:53;;;;;;;4.13;3.50;;;;;;;;;;5050903;28;20044;-65
2020/12/27 00:03:19;;;;;;;4.60;3.80;;;;;;;;;;5050536;28;20086;-66
2020/12/27 00:05:45;;;;;;;3.78;3.47;;;;;;;;;;5050469;28;20090;-67
2020/12/27 00:08:11;;;;;;;4.75;3.63;;;;;;;;;;5050441;28;20048;-67
2020/12/27 00:10:38;;;;;;;4.05;3.60;;;;;;;;;;5050320;28;20593;-68
2020/12/27 00:13:04;;;;;;;5.07;3.58;;;;;;;;;;5050745;28;20037;-68
2020/12/27 00:15:30;;;;;;;4.80;3.50;;;;;;;;;;5049059;28;20024;-68
2020/12/27 00:17:57;;;;;;;3.83;3.47;;;;;;;;;;5051441;28;20057;-67
2020/12/27 00:20:23;;;;;;;6.05;4.00;;;;;;;;;;5053876;28;20049;-67
2020/12/27 00:22:50;;;;;;;6.15;4.05;;;;;;;;;;5054109;28;20475;-67
2020/12/27 00:25:16;;;;;;;4.85;3.70;;;;;;;;;;5053589;28;20182;-66
2020/12/27 00:27:42;;;;;;;6.63;3.80;;;;;;;;;;5054241;28;20029;-67
2020/12/27 00:30:09;;;;;;;7.07;4.47;;;;;;;;;;5053921;28;20029;-66
2020/12/27 00:32:35;;;;;;;4.10;3.40;;;;;;;;;;5053829;28;20475;-66
2020/12/27 00:35:02;;;;;;;5.07;3.60;;;;;;;;;;5054118;28;20028;-66
2020/12/27 00:37:31;;;;;;;4.32;3.42;;;7.20;69.10;;;;;;5053464;28;20491;-66
2020/12/27 00:39:57;;;;;;;6.47;4.72;;;;;;;;;;5053578;28;20033;-67
2020/12/27 00:42:24;;;;;;;6.90;3.75;;;;;;;;;;5053733;28;20044;-67
2020/12/27 00:44:50;;;;;;;4.70;3.58;;;;;;;;;;5053812;28;20033;-66
2020/12/27 00:47:17;;;;;;;5.13;3.55;;;;;;;;;;5053694;28;20033;-65
2020/12/27 00:49:43;;;;;;;4.95;3.75;;;;;;;;;;5053347;28;20033;-66
2020/12/27 00:52:09;;;;;;;4.18;3.40;;;;;;;;;;5052388;28;20064;-66
2020/12/27 00:54:36;;;;;;;3.80;3.50;;;;;;;;;;5051922;28;20389;-65
2020/12/27 00:57:02;;;;;;;4.82;3.58;;;;;;;;;;5052413;28;20065;-68
2020/12/27 00:59:30;;;;;;;3.78;3.20;;;;;;;;;;5052012;28;20098;-66
2020/12/27 01:02:00;;;;;;;3.78;3.40;;;;;;;;;;5051756;28;20056;-66
2020/12/27 01:04:45;;;;;;;5.45;3.58;;;;;;;;;;5053053;28;20186;-67
2020/12/27 01:07:12;;;;;;;4.72;3.80;;;;;;;;;;5037659;28;20100;-66
2020/12/27 01:09:41;;;;;;;6.13;3.70;;;;;;;;;;5052005;28;20045;-66
2020/12/27 01:12:08;;;;;;;5.57;3.75;;;7.40;67.60;;;;;;5052892;28;20043;-67
2020/12/27 01:14:35;;;;;;;6.15;4.20;;;;;;;;;;5052160;28;20056;-66
2020/12/27 01:17:09;;;;;;;5.22;4.00;;;;;;;;;;5051956;28;20032;-66
2020/12/27 01:19:37;;;;;;;6.30;4.40;;;;;;;;;;5051514;28;20041;-67
2020/12/27 01:22:03;;;;;;;;;;;7.30;67.70;;;;;;5051970;28;20132;-67
2020/12/27 01:25:01;;;;;;;7.55;4.22;;;;;;;;;;5052857;28;19953;-69
2020/12/27 01:27:28;;;;;;;7.95;4.55;;;;;;;;;;5051432;28;20025;-68
2020/12/27 01:29:54;;;;;;;6.57;4.05;;;;;;;;;;5051800;28;20028;-66
2020/12/27 01:32:37;;;;;;;7.25;4.28;;;;;;;;;;5053901;28;20040;-66
2020/12/27 01:35:04;;;;;;;6.00;4.03;;;;;;;;;;5053193;28;20044;-67
2020/12/27 01:37:30;;;;;;;4.82;4.15;;;;;;;;;;5051936;28;20029;-67
2020/12/27 01:39:57;;;;;;;7.97;4.32;;;;;;;;;;5051402;28;20048;-66
2020/12/27 01:42:23;;;;;;;6.47;4.18;;;;;;;;;;5037212;28;20043;-66
2020/12/27 01:44:50;;;;;;;;;;;7.40;67.70;;;;;;5051574;28;20028;-65
2020/12/27 01:47:36;;;;;;;5.53;3.95;;;;;;;;;;5052539;28;19931;-66
2020/12/27 01:50:03;;;;;;;5.88;4.32;;;7.30;67.90;;;;;;5052389;28;20025;-66
2020/12/27 01:52:31;;;;;;;6.97;3.95;;;;;;;;;;5051003;28;20040;-66
2020/12/27 01:55:04;;;;;;;6.05;4.13;;;;;;;;;;5050804;28;20036;-66
2020/12/27 01:57:42;;;;;;;8.85;4.70;;;7.40;66.80;;;;;;5050832;28;20372;-67
2020/12/27 02:00:09;;;;;;;5.78;4.53;;;;;;;;;;5050714;28;20040;-66
2020/12/27 02:02:53;;;;;;;7.25;4.25;;;;;;;;;;5044628;28;20398;-65
2020/12/27 02:05:25;;;;;;;7.57;4.07;;;;;;;;;;5070139;28;20036;-67
2020/12/27 02:07:53;;;;;;;4.78;3.70;;;7.50;67.00;;;;;;5070479;28;20024;-67
2020/12/27 02:10:30;;;;;;;4.13;3.40;;;7.60;66.50;;;;;;5070789;28;20063;-65
2020/12/27 02:12:57;;;;;;;7.20;3.83;;;;;;;;;;5070860;28;20108;-67
2020/12/27 02:15:24;;;;;;;6.32;4.40;;;;;;;;;;5071870;28;20028;-68
2020/12/27 02:18:28;;;;;;;5.57;3.90;;;;;;;;;;5030205;28;20056;-66
2020/12/27 02:20:54;;;;;;;7.45;3.80;;;;;;;;;;5012813;28;20045;-67
2020/12/27 02:23:26;;;;;;;7.50;4.18;;;;;;;;;;5029494;28;20073;-67
2020/12/27 02:26:00;;;;;;;7.47;4.03;;;;;;;;;;4996545;28;20048;-67
2020/12/27 02:28:32;;;;;;;6.20;4.15;;;7.10;68.20;;;;;;5012784;28;20068;-68
2020/12/27 02:31:00;;;;;;;8.57;4.00;;;;;;;;;;5029599;28;20045;-66
2020/12/27 02:33:30;;;;;;;5.25;3.97;;;;;;;;;;5012863;28;20047;-66
2020/12/27 02:35:57;;;;;;;5.57;3.53;;;;;;;;;;5012780;28;20053;-67
2020/12/27 02:38:23;;;;;;;;;;;7.10;68.60;;;;;;5013422;28;20063;-67
2020/12/27 02:40:49;;;;;;;7.90;3.75;;;;;;;;;;5028617;28;19913;-67
2020/12/27 02:43:26;;;;;;;5.38;3.75;;;;;;;;;;5013024;28;20045;-67
2020/12/27 02:45:53;;;;;;;6.50;4.70;;;;;;;;;;4996029;28;20033;-66
2020/12/27 02:48:34;;;;;;;5.10;3.55;;;;;;;;;;5039044;28;20040;-67
2020/12/27 02:51:05;;;;;;;6.20;3.85;;;;;;;;;;5053941;28;20429;-67
2020/12/27 02:53:31;;;;;;;7.18;3.63;;;;;;;;;;5053414;28;20063;-68
2020/12/27 02:55:57;;;;;;;4.47;3.50;;;;;;;;;;5069974;28;20036;-67
2020/12/27 02:58:24;;;;;;;4.97;3.50;;;;;;;;;;5069509;28;20049;-67
2020/12/27 03:00:52;;;;;;;6.55;4.05;;;;;;;;;;5070191;28;20064;-67
2020/12/27 03:03:37;;;;;;;5.20;3.65;;;;;;;;;;5071198;28;20517;-66
2020/12/27 03:06:26;;;;;;;5.50;3.70;;;;;;;;;;5070490;28;20474;-67
2020/12/27 03:08:59;;;;;;;6.00;4.07;;;;;;;;;;5069823;28;20041;-66
2020/12/27 03:11:45;;;;;;;;;;;7.00;68.10;;;;;;5034875;28;20511;-67
2020/12/27 03:14:12;;;;;;;4.78;3.80;;;;;;;;;;5061689;28;19909;-67
2020/12/27 03:16:57;;;;;;;7.63;4.15;;;;;;;;;;5042937;28;20103;-66
2020/12/27 03:19:39;;;;;;;6.30;4.20;;;;;;;;;;5069338;28;20060;-68
2020/12/27 03:22:28;;;;;;;5.15;3.63;;;;;;;;;;5070092;28;20046;-68
2020/12/27 03:25:14;;;;;;;;;;;7.00;68.70;;;;;;5009336;28;20057;-67
2020/12/27 03:27:42;;;;;;;22.52;4.18;;;;;;;;;;4993549;28;20360;-67
2020/12/27 03:30:08;;;;;;;10.10;3.92;;;;;;;;;;4995001;28;20060;-67
2020/12/27 03:32:37;;;;;;;8.25;3.88;;;;;;;;;;5009081;28;20120;-66
2020/12/27 03:35:04;;;;;;;6.35;3.92;;;;;;;;;;5008967;28;20046;-67
2020/12/27 03:37:35;;;;;;;;;;;7.20;68.60;;;;;;5009360;28;20129;-66
2020/12/27 03:40:25;;;;;;;4.43;3.40;;;;;;;;;;4992864;28;20415;-68
2020/12/27 03:43:01;;;;;;;4.22;3.80;;;;;;;;;;5009456;28;20050;-66
2020/12/27 03:45:29;;;;;;;4.95;3.60;;;;;;;;;;5009131;28;20078;-67
2020/12/27 03:48:21;;;;;;;4.93;3.40;;;;;;;;;;5008861;28;20025;-66
2020/12/27 03:51:06;;;;;;;6.70;3.75;;;;;;;;;;5008807;28;20030;-67
2020/12/27 03:53:32;;;;;;;;;;;7.30;68.40;;;;;;5012637;28;20038;-68
2020/12/27 03:56:34;;;;;;;4.82;3.47;;;;;;;;;;4998998;28;19916;-66
2020/12/27 03:59:13;;;;;;;4.88;3.58;;;;;;;;;;5015411;28;20124;-66
2020/12/27 04:01:45;;;;;;;5.32;3.33;;;;;;;;;;5012402;28;20044;-66
2020/12/27 04:04:11;;;;;;;4.25;3.30;;;;;;;;;;5073146;28;20144;-68
2020/12/27 04:06:38;;;;;;;4.68;3.05;;;;;;;;;;5073167;28;20070;-67
2020/12/27 04:09:19;;;;;;;3.67;3.38;;;7.40;67.60;;;;;;5073029;28;20426;-67
2020/12/27 04:11:45;;;;;;;4.80;3.35;;;;;;;;;;5073085;28;20074;-67
2020/12/27 04:14:12;;;;;;;4.05;3.40;;;;;;;;;;5073007;28;20060;-65
2020/12/27 04:16:38;;;;;;;3.53;3.20;;;;;;;;;;5072850;28;20024;-66
2020/12/27 04:19:06;;;;;;;3.40;3.10;;;;;;;;;;5073027;28;20037;-67
2020/12/27 04:21:43;;;;;;;3.30;3.00;;;7.30;68.00;;;;;;5072477;28;20060;-66
2020/12/27 04:24:30;;;;;;;3.63;3.30;;;;;;;;;;5072686;28;20505;-67
2020/12/27 04:26:56;;;;;;;4.20;3.38;;;;;;;;;;5073563;28;20032;-66
2020/12/27 04:29:23;;;;;;;8.13;3.22;;;;;;;;;;5072899;28;20024;-65
2020/12/27 04:31:54;;;;;;;3.47;3.17;;;;;;;;;;5072433;28;20463;-66
2020/12/27 04:34:41;;;;;;;3.55;3.13;;;;;;;;;;5071837;28;20036;-66
2020/12/27 04:37:07;;;;;;;5.20;2.90;;;;;;;;;;5072039;28;20509;-66
2020/12/27 04:39:40;;;;;;;3.95;3.20;;;;;;;;;;5055808;28;20085;-65
2020/12/27 04:42:08;;;;;;;5.20;3.40;;;7.50;67.20;;;;;;5072437;28;20016;-67
2020/12/27 04:44:47;;;;;;;3.20;2.90;;;;;;;;;;5072416;28;20494;-66
2020/12/27 04:47:25;;;;;;;3.83;2.97;;;;;;;;;;5072367;28;20410;-63
2020/12/27 04:50:15;;;;;;;3.20;2.90;;;7.50;66.90;;;;;;5031256;28;20037;-66
2020/12/27 04:52:42;;;;;;;3.05;2.80;;;;;;;;;;5014848;28;20046;-67
2020/12/27 04:55:16;;;;;;;4.55;3.40;;;;;;;;;;4997744;28;20054;-65
2020/12/27 04:58:02;;;;;;;;;;;7.70;66.40;;;;;;5009094;28;20041;-66
2020/12/27 05:00:45;;;;;;;3.58;3.20;;;;;;;;;;5000328;28;19913;-66
2020/12/27 05:03:44;;;;;;;3.17;2.85;;;;;;;;;;4991343;28;20043;-68
2020/12/27 05:06:14;;;;;;;2.80;2.60;;;7.70;67.20;;;;;;4975277;28;20031;-66
2020/12/27 05:08:46;;;;;;;2.92;2.72;;;7.50;67.90;;;;;;4991583;28;20510;-66
2020/12/27 05:11:17;;;;;;;2.92;2.63;;;7.80;68.10;;;;;;4991266;28;20030;-66
2020/12/27 05:13:48;;;;;;;3.40;2.90;;;;;;;;;;4991583;28;20129;-67
2020/12/27 05:16:30;;;;;;;3.03;2.83;;;7.60;68.10;;;;;;4975270;28;20088;-67
2020/12/27 05:18:59;;;;;;;2.90;2.70;;;7.50;68.80;;;;;;4991619;28;20117;-64
2020/12/27 05:21:37;;;;;;;3.00;2.80;;;;;;;;;;4990989;28;20062;-67
2020/12/27 05:24:04;;;;;;;3.03;2.83;;;;;;;;;;4975396;28;20080;-66
2020/12/27 05:26:40;;;;;;;2.95;2.50;;;7.40;69.90;;;;;;4984870;28;20181;-65
2020/12/27 05:29:31;;;;;;;2.80;2.60;;;7.20;70.70;;;;;;5020176;28;20136;-67
2020/12/27 05:32:05;;;;;;;2.88;2.67;;;;;;;;;;5013891;28;20125;-67
2020/12/27 05:34:54;;;;;;;2.90;2.67;;;;;;;;;;5030317;28;20036;-67
2020/12/27 05:37:40;;;;;;;2.70;2.50;;;7.40;70.60;;;;;;5030418;28;20033;-68
2020/12/27 05:40:37;;;;;;;3.28;2.53;;;7.40;70.20;;;;;;5072722;28;20040;-68
2020/12/27 05:43:14;;;;;;;2.80;2.60;;;7.60;69.90;;;;;;5071520;28;20482;-68
2020/12/27 05:45:44;;;;;;;2.88;2.60;;;;;;;;;;5070969;28;20017;-68
2020/12/27 05:48:11;;;;;;;2.90;2.70;;;;;;;;;;5071290;28;20033;-68
2020/12/27 05:50:41;;;;;;;2.85;2.65;;;7.40;70.10;;;;;;5070935;28;20028;-67
2020/12/27 05:53:23;;;;;;;3.00;2.80;;;7.40;70.60;;;;;;5072556;28;20028;-68
2020/12/27 05:55:59;;;;;;;2.85;2.67;;;7.20;71.30;;;;;;5072223;28;20043;-67
2020/12/27 05:58:28;;;;;;;3.38;2.58;;;;;;;;;;5071081;28;20048;-67
2020/12/27 06:01:20;;;;;;;2.45;2.35;;;7.20;71.10;;;;;;5070867;28;20064;-67
2020/12/27 06:04:04;;;;;;;2.60;2.40;;;7.20;71.70;;;;;;5070826;28;20077;-67
2020/12/27 06:06:39;;;;;;;2.90;2.70;;;;;;;;;;5070546;28;20103;-66
2020/12/27 06:09:07;;;;;;;3.92;2.55;;;7.40;70.90;;;;;;5070764;28;20032;-68
2020/12/27 06:11:53;;;;;;;2.70;2.50;;;7.30;71.40;;;;;;5070381;28;20055;-68
2020/12/27 06:14:36;;;;;;;3.55;2.55;;;7.40;71.10;;;;;;5070280;28;20123;-67
2020/12/27 06:17:40;;;;;;;3.00;2.80;;;7.40;70.90;;;;;;5071701;28;20036;-68
2020/12/27 06:20:34;;;;;;;2.50;2.40;;;7.30;71.70;;;;;;5044359;28;20506;-67
2020/12/27 06:23:01;;;;;;;2.50;2.40;;;;;;;;;;5070495;28;20024;-68
2020/12/27 06:25:35;;;;;;;2.50;2.40;;;7.40;71.50;;;;;;5070571;28;20036;-68
2020/12/27 06:28:02;;;;;;;2.50;2.40;;;;;;;;;;5054075;28;20083;-67
2020/12/27 06:30:29;;;;;;;2.70;2.50;;;;;;;;;;5070024;28;20094;-68
2020/12/27 06:33:35;;;;;;;2.50;2.40;;;7.40;71.80;;;;;;5059364;28;20063;-69
2020/12/27 06:36:03;;;;;;;2.60;2.50;;;;;;;;;;5070378;28;20039;-68
2020/12/27 06:38:32;;;;;;;2.78;2.58;;;7.40;72.20;;;;;;5070064;28;20115;-68
2020/12/27 06:41:08;;;;;;;2.60;2.40;;;7.40;72.10;;;;;;5069987;28;20044;-67
2020/12/27 06:43:54;;;;;;;2.83;2.63;;;;;;;;;;5071338;28;20033;-67
2020/12/27 06:46:33;;;;;;;2.67;2.50;;;;;;;;;;5070321;28;20024;-69
2020/12/27 06:49:15;;;;;;;2.63;2.50;;;7.30;72.70;;;;;;5069951;28;20949;-68
2020/12/27 06:51:56;;;;;;;2.40;2.30;;;;;;;;;;5071521;28;20039;-67
2020/12/27 06:54:57;;;;;;;4.53;2.53;;;;;;;;;;5071099;28;20508;-67
2020/12/27 06:57:37;;;;;;;2.60;2.40;;;;;;;;;;5069777;28;20028;-67
2020/12/27 07:00:26;;;;;;;2.80;2.60;;;7.20;73.40;;;;;;5070228;28;20569;-67
2020/12/27 07:03:07;;;;;;;2.60;2.50;;;7.30;73.30;;;;;;5053389;28;20032;-67
2020/12/27 07:05:35;;;;;;;2.67;2.50;;;7.50;72.30;;;;;;5070909;28;20131;-67
2020/12/27 07:08:04;;;;;;;2.95;2.75;;;7.40;72.30;;;;;;5071055;28;20040;-66
2020/12/27 07:10:35;;;;;;;2.60;2.50;;;7.50;72.80;;;;;;5065893;28;20036;-65
2020/12/27 07:13:12;;;;;;;2.50;2.40;;;7.70;72.20;;;;;;5065582;28;20394;-67
2020/12/27 07:15:49;;;;;;;2.50;2.40;;;7.70;72.10;;;;;;5070912;28;20372;-67
2020/12/27 07:18:26;;;;;;;2.60;2.50;;;7.60;71.90;;;;;;5070847;28;20124;-67
2020/12/27 07:20:59;;;;;;;2.72;2.60;;;7.70;71.80;;;;;;5070815;28;20134;-67
2020/12/27 07:23:29;;;;;;;2.70;2.50;;;7.60;71.70;;;;;;5071124;28;20024;-66
2020/12/27 07:25:58;;;;;;;2.40;2.30;;;7.60;72.20;;;;;;5053887;28;20049;-67
2020/12/27 07:28:25;;;;;;;2.40;2.30;;;7.60;72.10;;;;;;4723322;28;10000925;-67
2020/12/27 07:30:55;;;;;;;;;;;8.00;72.80;;;;;;5051286;28;20080;-66
2020/12/27 07:33:27;;;;;;;2.50;2.40;;;7.50;72.20;;;;;;5072895;28;19912;-67
2020/12/27 07:36:00;;;;;;;2.50;2.40;;;7.50;72.20;;;;;;5072866;28;20024;-66
2020/12/27 07:38:53;;;;;;;2.50;2.40;;;7.50;72.30;;;;;;5072765;28;20036;-64
2020/12/27 07:41:29;;;;;;;2.60;2.50;;;7.40;72.70;;;;;;5072204;28;20037;-66
2020/12/27 07:44:00;;;;;;;2.50;2.40;;;7.40;73.10;;;;;;5072625;28;20036;-67
2020/12/27 07:46:27;;;;;;;2.50;2.40;;;7.40;72.80;;;;;;5072548;28;20494;-67
2020/12/27 07:48:54;;;;;;;2.45;2.35;;;7.60;72.10;;;;;;5072724;28;20025;-67
2020/12/27 07:51:22;;;;;;;4.90;2.60;;;7.70;71.60;;;;;;5072790;28;20536;-66
2020/12/27 07:53:53;;;;;;;2.40;2.30;;;7.60;71.80;;;;;;5074422;28;20098;-66
2020/12/27 07:56:20;;;;;;;2.92;2.72;;;7.80;70.80;;;;;;5073003;28;20040;-66
2020/12/27 07:58:57;;;;;;;2.45;2.35;;;7.80;70.40;;;;;;5075830;28;20048;-71
2020/12/27 08:01:28;;;;;;;2.50;2.40;;;7.80;70.60;;;;;;5072704;28;20059;-67
2020/12/27 08:03:55;;;;;;;2.50;2.40;;;7.80;70.20;;;;;;5072332;28;20485;-68
2020/12/27 08:06:21;;;;;;;;;;;7.80;70.60;;;;;;5072044;28;20059;-66
2020/12/27 08:08:48;;;;;;;2.60;2.40;;;;;;;;;;5071246;28;19921;-66
2020/12/27 08:11:21;;;;;;;2.50;2.40;;;7.80;70.40;;;;;;5071763;28;20056;-66
2020/12/27 08:13:55;;;;;;;2.40;2.30;;;7.90;69.60;;;;;;5065100;28;20052;-66
2020/12/27 08:16:22;;;;;;;2.40;2.30;;;;;;;;;;5066945;28;20039;-68
2020/12/27 08:18:48;;;;;;;2.40;2.30;;;;;;;;;;5062382;28;20064;-67
2020/12/27 08:21:18;;;;;;;2.40;2.30;;;8.10;68.70;;;;;;5049410;28;20114;-66
2020/12/27 08:23:57;;;;;;;2.40;2.30;;;8.10;68.80;;;;;;5051556;28;20387;-68
2020/12/27 08:26:23;;;;;;;2.50;2.40;;;;;;;;;;5046088;28;20032;-63
2020/12/27 08:28:50;;;;;;;2.40;2.30;;;8.10;69.00;;;;;;5055833;28;20033;-66
2020/12/27 08:31:26;;;;;;;2.50;2.40;;;8.20;68.10;;;;;;5060348;28;20730;-66
2020/12/27 08:34:04;;;;;;;2.33;2.22;;;8.30;68.90;;;;;;5053623;28;20025;-65
2020/12/27 08:36:31;;;;;;;2.40;2.30;;;;;;;;;;5053803;28;20059;-65
2020/12/27 08:39:03;;;;;;;2.65;2.50;;;8.10;69.20;;;;;;5059125;28;20045;-65
2020/12/27 08:41:32;;;;;;;2.40;2.30;;;8.20;69.20;;;;;;5070533;28;20112;-65
2020/12/27 08:44:29;;;;;;;2.50;2.40;;;8.20;69.00;;;;;;5068926;28;20039;-66
2020/12/27 08:47:01;;;;;;;2.42;2.33;;;8.10;70.00;;;;;;5069940;28;20021;-65
2020/12/27 08:49:53;;;;;;;2.50;2.40;;;8.20;69.60;;;;;;5055922;28;20032;-66
2020/12/27 08:52:21;;;;;;;2.40;2.30;;;8.20;69.60;;;;;;5054955;28;20067;-66
2020/12/27 08:54:57;;;;;;;2.58;2.47;;;8.20;69.00;;;;;;5043225;28;20021;-67
2020/12/27 08:57:24;;;;;;;2.60;2.50;;;;;;;;;;5053409;28;20032;-67
2020/12/27 09:00:09;;;;;;;2.53;2.40;;;7.90;70.80;;;;;;5054759;28;20029;-66
2020/12/27 09:02:36;;;;;;;2.78;2.58;;;;;;;;;;5056503;28;20032;-67
2020/12/27 09:05:13;;;;;;;2.50;2.40;;;7.90;70.60;;;;;;5054908;28;20029;-67
2020/12/27 09:07:44;;;;;;;2.40;2.30;;;8.10;69.90;;;;;;5056290;28;20040;-66
2020/12/27 09:10:24;;;;;;;2.50;2.40;;;8.10;70.00;;;;;;5054926;28;20037;-66
2020/12/27 09:13:07;;;;;;;2.70;2.50;;;8.00;70.20;;;;;;5069080;28;20086;-67
2020/12/27 09:15:43;;;;;;;2.40;2.30;;;8.00;70.20;;;;;;5073114;28;20115;-66
2020/12/27 09:18:11;;;;;;;2.58;2.47;;;7.90;70.80;;;;;;5072705;28;20119;-66
2020/12/27 09:20:42;;;;;;;2.42;2.30;;;7.50;70.70;;;;;;5072311;28;20165;-66
2020/12/27 09:23:16;;;;;;;2.50;2.40;;;7.80;71.00;;;;;;5072793;28;20020;-67
2020/12/27 09:25:44;;;;;;;2.67;2.50;;;8.00;70.60;;;;;;5072932;28;20052;-67
2020/12/27 09:28:13;;;;;;;;;;;8.00;71.00;;;;;;5073015;28;20024;-67
2020/12/27 09:30:40;;;;;;;2.67;2.47;;;;;;;;;;5072640;28;19908;-67
2020/12/27 09:33:07;;;;;;;2.65;2.55;;;;;;;;;;5071453;28;20090;-66
2020/12/27 09:35:33;;;;;;;2.50;2.40;;;8.00;70.20;;;;;;5072170;28;20041;-67
2020/12/27 09:37:59;;;;;;;;;;;8.00;70.60;;;;;;5071654;28;20490;-67
2020/12/27 09:40:26;;;;;;;2.50;2.40;;;;;;;;;;5072577;28;19938;-65
2020/12/27 09:43:05;;;;;;;2.63;2.50;;;7.90;70.90;;;;;;5072731;28;20033;-65
2020/12/27 09:45:32;;;;;;;2.45;2.35;;;8.00;70.30;;;;;;5072298;28;20101;-66
2020/12/27 09:48:00;;;;;;;2.60;2.50;;;8.10;70.60;;;;;;5072095;28;20143;-66
2020/12/27 09:50:26;;;;;;;2.60;2.50;;;;;;;;;;5071218;28;20032;-66
2020/12/27 09:52:53;;;;;;;2.60;2.50;;;;;;;;;;5072118;28;20471;-67
2020/12/27 09:55:19;;;;;;;2.50;2.40;;;;;;;;;;5071998;28;20037;-66
2020/12/27 09:57:45;;;;;;;2.75;2.55;;;;;;;;;;5072001;28;20052;-68
2020/12/27 10:00:12;;;;;;;2.67;2.55;;;;;;;;;;5071937;28;20479;-67
2020/12/27 10:02:38;;;;;;;2.50;2.40;;;;;;;;;;5071769;28;20032;-68
2020/12/27 10:05:04;;;;;;;2.50;2.40;;;;;;;;;;5071772;28;20029;-68
2020/12/27 10:07:31;;;;;;;2.58;2.47;;;;;;;;;;5071694;28;20029;-69
2020/12/27 10:09:57;;;;;;;2.60;2.50;;;;;;;;;;5072147;28;20084;-69
2020/12/27 10:12:23;;;;;;;2.40;2.30;;;;;;;;;;5074280;28;20130;-68
2020/12/27 10:14:50;;;;;;;4.05;2.70;;;;;;;;;;5071971;28;20079;-69
2020/12/27 10:17:16;;;;;;;2.50;2.40;;;;;;;;;;5070630;28;20073;-69
2020/12/27 10:19:43;;;;;;;2.70;2.60;;;;;;;;;;5071155;28;20094;-69
2020/12/27 10:22:10;;;;;;;2.72;2.50;;;;;;;;;;5071932;28;20025;-67
2020/12/27 10:24:36;;;;;;;2.53;2.40;;;;;;;;;;5071760;28;20033;-67
2020/12/27 10:27:05;;;;;;;2.63;2.50;;;7.70;71.90;;;;;;5071413;28;20029;-67
2020/12/27 10:29:31;;;;;;;3.05;2.60;;;;;;;;;;5071506;28;20254;-69
2020/12/27 10:31:59;;;;;;;2.40;2.30;;;7.90;71.90;;;;;;5071428;28;20030;-68
2020/12/27 10:34:27;;;;;;;2.40;2.30;;;8.00;71.60;;;;;;5069880;28;20358;-68
2020/12/27 10:36:54;;;;;;;2.55;2.42;;;7.90;71.50;;;;;;5070895;28;20055;-66
2020/12/27 10:39:21;;;;;;;2.35;2.25;;;;;;;;;;5071227;28;20521;-68
2020/12/27 10:41:48;;;;;;;3.03;2.38;;;7.90;71.30;;;;;;5071236;28;20115;-68
2020/12/27 10:44:15;;;;;;;2.50;2.40;;;;;;;;;;5071430;28;20046;-67
2020/12/27 10:46:42;;;;;;;2.55;2.40;;;8.10;71.10;;;;;;5070025;28;20036;-67
2020/12/27 10:49:08;;;;;;;;;;;8.90;72.00;;;;;;5071462;28;20120;-68
2020/12/27 10:51:35;;;;;;;2.72;2.60;;;8.10;71.80;;;;;;5059845;28;19923;-65
2020/12/27 10:54:02;;;;;;;2.40;2.30;;;;;;;;;;5068767;28;20025;-64
2020/12/27 10:56:28;;;;;;;3.60;2.60;;;;;;;;;;5071287;28;20070;-66
2020/12/27 10:58:54;;;;;;;2.67;2.53;;;;;;;;;;5071051;28;20037;-66
2020/12/27 11:01:21;;;;;;;2.50;2.40;;;;;;;;;;5070731;28;20033;-68
2020/12/27 11:03:47;;;;;;;2.40;2.28;;;;;;;;;;5069762;28;20043;-65
2020/12/27 11:06:14;;;;;;;2.50;2.40;;;;;;;;;;5071120;28;20108;-66
2020/12/27 11:08:40;;;;;;;2.60;2.50;;;;;;;;;;5071290;28;20039;-66
2020/12/27 11:11:06;;;;;;;2.70;2.50;;;;;;;;;;5073001;28;20028;-64
2020/12/27 11:13:32;;;;;;;2.60;2.40;;;;;;;;;;5072866;28;20020;-63
2020/12/27 11:15:59;;;;;;;2.67;2.47;;;;;;;;;;5071177;28;20046;-66
2020/12/27 11:18:25;;;;;;;3.90;2.55;;;;;;;;;;5070756;28;20506;-66
2020/12/27 11:20:51;;;;;;;2.50;2.40;;;;;;;;;;5070737;28;20052;-66
2020/12/27 11:23:17;;;;;;;2.85;2.40;;;;;;;;;;5070922;28;20029;-65
2020/12/27 11:25:44;;;;;;;2.50;2.40;;;;;;;;;;5069404;28;20425;-67
2020/12/27 11:28:10;;;;;;;2.45;2.35;;;;;;;;;;5070833;28;20177;-65
2020/12/27 11:30:36;;;;;;;2.50;2.40;;;;;;;;;;5070835;28;20382;-65
2020/12/27 11:33:03;;;;;;;2.60;2.40;;;;;;;;;;5070581;28;20421;-66
2020/12/27 11:35:29;;;;;;;2.50;2.40;;;;;;;;;;5070070;28;20387;-66
2020/12/27 11:37:55;;;;;;;2.47;2.38;;;;;;;;;;5069538;28;20107;-65
2020/12/27 11:40:21;;;;;;;2.50;2.40;;;;;;;;;;5070508;28;20032;-67
2020/12/27 11:42:48;;;;;;;2.42;2.33;;;;;;;;;;5070377;28;20060;-66
2020/12/27 11:45:14;;;;;;;2.40;2.30;;;;;;;;;;5054048;28;20025;-68
2020/12/27 11:47:40;;;;;;;2.70;2.60;;;;;;;;;;5051696;28;20039;-67
2020/12/27 11:50:07;;;;;;;2.40;2.30;;;;;;;;;;5050149;28;20033;-66
2020/12/27 11:52:33;;;;;;;2.55;2.40;;;;;;;;;;5057440;28;20100;-65
2020/12/27 11:55:00;;;;;;;3.05;2.85;;;;;;;;;;5049474;28;20033;-67
2020/12/27 11:57:27;;;;;;;5.70;4.07;;;;;;;;;;5057571;28;20089;-66
2020/12/27 11:59:53;;;;;;;2.42;2.33;;;;;;;;;;5053156;28;20108;-65
2020/12/27 12:02:19;;;;;;;2.40;2.30;;;;;;;;;;5053928;28;20458;-66
2020/12/27 12:04:45;;;;;;;2.60;2.40;;;;;;;;;;5051776;28;20075;-64
2020/12/27 12:07:12;;;;;;;3.10;2.40;;;;;;;;;;5053585;28;20083;-65
2020/12/27 12:09:38;;;;;;;2.50;2.40;;;;;;;;;;5057896;28;20056;-67
2020/12/27 12:12:04;;;;;;;2.50;2.40;;;;;;;;;;5050469;28;20458;-67
2020/12/27 12:14:30;;;;;;;2.58;2.38;;;;;;;;;;5059812;28;20119;-65
2020/12/27 12:16:57;;;;;;;2.67;2.40;;;;;;;;;;5056969;28;20032;-67
2020/12/27 12:19:23;;;;;;;2.40;2.30;;;;;;;;;;5058926;28;20037;-65
2020/12/27 12:21:53;;;;;;;2.65;2.50;;;8.90;65.60;;;;;;5058167;28;20032;-66
2020/12/27 12:24:22;;;;;;;2.50;2.40;;;8.80;65.70;;;;;;5060645;28;20029;-66
2020/12/27 12:26:49;;;;;;;2.63;2.50;;;;;;;;;;5059159;28;20097;-65
2020/12/27 12:29:15;;;;;;;2.33;2.22;;;;;;;;;;5059109;28;20028;-65
2020/12/27 12:31:42;;;;;;;2.40;2.30;;;;;;;;;;5057287;28;20032;-64
2020/12/27 12:34:08;;;;;;;2.58;2.40;;;;;;;;;;5065497;28;20037;-66
2020/12/27 12:36:35;;;;;;;2.30;2.20;;;;;;;;;;5058695;28;20044;-67
2020/12/27 12:39:01;;;;;;;2.42;2.33;;;;;;;;;;5057949;28;20033;-66
2020/12/27 12:41:30;;;;;;;3.63;2.40;;;9.40;63.40;;;;;;5054302;28;20044;-65
2020/12/27 12:43:57;;;;;;;2.40;2.30;;;;;;;;;;5054789;28;20025;-65
2020/12/27 12:46:23;;;;;;;2.30;2.20;;;;;;;;;;5059815;28;20094;-66
2020/12/27 12:48:51;;;;;;;2.30;2.20;;;;;;;;;;5061116;28;20440;-66
2020/12/27 12:51:18;;;;;;;2.47;2.38;;;;;;;;;;5052800;28;20055;-67
2020/12/27 12:53:44;;;;;;;2.20;2.10;;;;;;;;;;5055047;28;20029;-66
2020/12/27 12:56:13;;;;;;;2.40;2.30;;;;;;;;;;5065932;28;20068;-67
2020/12/27 12:58:40;;;;;;;2.42;2.30;;;9.20;63.10;;;;;;5060057;28;20362;-65
2020/12/27 13:01:09;;;;;;;2.40;2.30;;;9.00;63.10;;;;;;5053088;28;20037;-67
2020/12/27 13:03:35;;;;;;;2.30;2.20;;;;;;;;;;5050425;28;20060;-66
2020/12/27 13:06:01;;;;;;;2.30;2.20;;;;;;;;;;5056193;28;20189;-66
2020/12/27 13:08:28;;;;;;;2.33;2.22;;;;;;;;;;5061690;28;20426;-70
2020/12/27 13:10:54;;;;;;;2.40;2.30;;;;;;;;;;5054539;28;20048;-65
2020/12/27 13:13:21;;;;;;;2.55;2.40;;;9.20;62.80;;;;;;5057113;28;20032;-66
2020/12/27 13:15:47;;;;;;;2.35;2.25;;;;;;;;;;5047734;28;20036;-67
2020/12/27 13:18:13;;;;;;;2.30;2.20;;;;;;;;;;5053106;28;20037;-66
2020/12/27 13:20:40;;;;;;;2.40;2.30;;;;;;;;;;5051018;28;20481;-66
2020/12/27 13:23:08;;;;;;;2.40;2.30;;;9.60;61.00;;;;;;5056584;28;20477;-67
2020/12/27 13:25:34;;;;;;;2.30;2.20;;;;;;;;;;5057156;28;20463;-66
2020/12/27 13:28:01;;;;;;;2.40;2.30;;;;;;;;;;5059787;28;20032;-65
2020/12/27 13:30:27;;;;;;;2.35;2.25;;;;;;;;;;5051907;28;20050;-67
2020/12/27 13:32:53;;;;;;;2.30;2.20;;;;;;;;;;5054781;28;20047;-67
2020/12/27 13:35:20;;;;;;;2.30;2.20;;;;;;;;;;5056007;28;20073;-65
2020/12/27 13:37:46;;;;;;;2.70;2.50;;;;;;;;;;5054530;28;20211;-63
2020/12/27 13:40:12;;;;;;;2.30;2.20;;;;;;;;;;5058112;28;20037;-66
2020/12/27 13:42:38;;;;;;;2.40;2.30;;;;;;;;;;5053321;28;20021;-66
2020/12/27 13:45:05;;;;;;;2.30;2.20;;;;;;;;;;5051440;28;20955;-67
2020/12/27 13:47:31;;;;;;;2.30;2.20;;;;;;;;;;5053452;28;20028;-66
2020/12/27 13:49:57;;;;;;;2.30;2.20;;;;;;;;;;5053254;28;20368;-65
2020/12/27 13:52:24;;;;;;;2.30;2.20;;;;;;;;;;5061731;28;20020;-65
2020/12/27 13:54:50;;;;;;;2.28;2.17;;;;;;;;;;5054617;28;20025;-65
2020/12/27 13:57:16;;;;;;;2.20;2.10;;;;;;;;;;5053772;28;20056;-65
2020/12/27 13:59:43;;;;;;;2.30;2.20;;;;;;;;;;5056419;28;20029;-66
2020/12/27 14:02:09;;;;;;;2.35;2.25;;;;;;;;;;5045871;28;20090;-65
2020/12/27 14:04:35;;;;;;;2.30;2.20;;;;;;;;;;5050375;28;20375;-66
2020/12/27 14:07:01;;;;;;;2.35;2.20;;;;;;;;;;5051292;28;20044;-65
2020/12/27 14:09:28;;;;;;;2.50;2.30;;;;;;;;;;5050339;28;20029;-65
2020/12/27 14:11:54;;;;;;;2.50;2.30;;;;;;;;;;5058270;28;20036;-66
2020/12/27 14:14:20;;;;;;;2.20;2.10;;;;;;;;;;5060539;28;20037;-66
2020/12/27 14:16:49;;;;;;;2.45;2.35;;;9.40;62.20;;;;;;5056167;28;20032;-66
2020/12/27 14:19:18;;;;;;;2.30;2.20;;;;;;;;;;4442586;28;10002834;-65
2020/12/27 14:21:44;;;;;;;4.88;2.60;;;;;;;;;;5064410;28;20025;-65
2020/12/27 14:24:10;;;;;;;2.53;2.33;;;;;;;;;;5068989;28;20102;-65
2020/12/27 14:26:39;;;;;;;2.30;2.20;;;9.60;61.80;;;;;;5069101;28;20044;-66
2020/12/27 14:29:06;;;;;;;2.40;2.30;;;;;;;;;;5068866;28;20222;-64